createdAt,value
2019-04-11T00:02:21.231Z,14.07
2019-04-11T00:09:10.240Z,14.50
2019-04-11T00:15:55.376Z,17.07
2019-04-11T00:22:40.239Z,13.40
2019-04-11T00:29:26.070Z,11.90
2019-04-11T00:36:12.343Z,13.23
2019-04-11T00:42:57.422Z,13.17
2019-04-11T00:49:42.926Z,16.70
2019-04-11T00:56:28.428Z,11.17
2019-04-11T01:03:14.407Z,16.77
2019-04-11T01:10:01.047Z,13.67
2019-04-11T01:16:48.979Z,13.77
2019-04-11T01:23:39.434Z,21.83
2019-04-11T01:30:26.981Z,13.30
2019-04-11T01:37:11.902Z,13.13
2019-04-11T01:44:02.173Z,18.13
2019-04-11T01:50:43.535Z,16.70
2019-04-11T01:57:29.526Z,14.20
2019-04-11T02:04:22.188Z,14.27
2019-04-11T02:11:08.154Z,13.47
2019-04-11T02:17:53.317Z,13.27
2019-04-11T02:24:50.068Z,14.27
2019-04-11T02:31:36.785Z,15.30
2019-04-11T02:38:24.389Z,13.83
2019-04-11T02:45:24.823Z,13.00
2019-04-11T02:51:56.181Z,17.07
2019-04-11T02:58:41.576Z,13.77
2019-04-11T03:05:26.871Z,14.17
2019-04-11T03:12:13.283Z,15.37
2019-04-11T03:19:15.940Z,15.60
2019-04-11T03:25:46.868Z,12.97
2019-04-11T03:33:18.557Z,13.90
2019-04-11T03:39:40.645Z,17.00
2019-04-11T03:46:24.991Z,15.00
2019-04-11T03:52:54.060Z,14.10
2019-04-11T03:59:40.702Z,15.27
2019-04-11T04:06:28.570Z,14.57
2019-04-11T04:13:17.002Z,13.10
2019-04-11T04:20:19.462Z,11.97
2019-04-11T04:27:07.684Z,15.67
2019-04-11T04:33:53.305Z,14.40
2019-04-11T04:40:50.982Z,12.80
2019-04-11T04:47:36.377Z,14.28
2019-04-11T04:54:14.218Z,16.13
2019-04-11T05:01:01.452Z,17.80
2019-04-11T05:07:46.896Z,14.03
2019-04-11T05:14:32.339Z,18.50
2019-04-11T05:21:17.363Z,12.93
2019-04-11T05:28:02.314Z,15.93
2019-04-11T05:34:47.262Z,12.67
2019-04-11T05:41:33.460Z,15.20
2019-04-11T05:48:23.993Z,13.90
2019-04-11T05:55:11.745Z,17.70
2019-04-11T06:02:01.611Z,14.30
2019-04-11T06:08:44.157Z,13.33
2019-04-11T06:15:44.324Z,15.40
2019-04-11T06:22:29.786Z,12.73
2019-04-11T06:29:22.890Z,15.43
2019-04-11T06:36:21.105Z,12.80
2019-04-11T06:43:07.871Z,14.73
2019-04-11T06:49:58.508Z,12.10
2019-04-11T06:56:45.546Z,11.85
2019-04-11T07:03:33.595Z,12.17
2019-04-11T07:10:20.585Z,12.37
2019-04-11T07:17:23.616Z,13.88
2019-04-11T07:24:25.019Z,13.25
2019-04-11T07:31:21.604Z,13.60
2019-04-11T07:38:06.716Z,11.75
2019-04-11T07:44:56.026Z,13.45
2019-04-11T07:51:43.003Z,12.95
2019-04-11T07:58:30.826Z,12.05
2019-04-11T08:05:21.541Z,12.05
2019-04-11T08:12:08.757Z,14.00
2019-04-11T08:19:11.810Z,14.40
2019-04-11T08:26:15.136Z,11.15
2019-04-11T08:33:02.416Z,16.57
2019-04-11T08:39:49.088Z,12.05
2019-04-11T08:46:35.682Z,15.78
2019-04-11T08:53:25.098Z,15.85
2019-04-11T09:00:13.794Z,14.53
2019-04-11T09:06:59.247Z,16.35
2019-04-11T09:13:49.458Z,17.07
2019-04-11T09:20:40.154Z,16.80
2019-04-11T09:27:45.469Z,16.20
2019-04-11T09:34:35.651Z,18.12
2019-04-11T09:41:22.724Z,19.90
2019-04-11T09:48:26.238Z,18.92
2019-04-11T09:55:19.154Z,18.80
2019-04-11T10:02:23.250Z,18.80
2019-04-11T10:09:08.907Z,18.48
2019-04-11T10:16:12.788Z,16.75
2019-04-11T10:23:16.508Z,18.20
2019-04-11T10:30:19.505Z,18.80
2019-04-11T10:37:06.035Z,17.23
2019-04-11T10:43:51.662Z,20.88
2019-04-11T10:50:54.675Z,17.15
2019-04-11T10:57:42.397Z,17.00
2019-04-11T11:04:32.574Z,22.20
2019-04-11T11:11:19.495Z,20.67
2019-04-11T11:18:35.118Z,16.90
2019-04-11T11:25:15.144Z,19.60
2019-04-11T11:32:00.955Z,20.07
2019-04-11T11:39:04.216Z,23.50
2019-04-11T11:45:58.789Z,25.08
2019-04-11T11:53:04.859Z,17.33
2019-04-11T11:59:50.422Z,21.60
2019-04-11T12:06:35.610Z,19.93
2019-04-11T12:13:26.011Z,20.73
2019-04-11T12:20:16.598Z,17.32
2019-04-11T12:27:16.485Z,22.53
2019-04-11T12:34:18.700Z,18.80
2019-04-11T12:41:08.415Z,19.07
2019-04-11T12:47:53.505Z,18.73
2019-04-11T12:54:43.323Z,19.73
2019-04-11T13:01:47.815Z,19.30
2019-04-11T13:08:44.230Z,22.93
2019-04-11T13:15:30.952Z,21.23
2019-04-11T13:22:20.703Z,19.05
2019-04-11T13:29:26.719Z,18.97
2019-04-11T13:36:29.291Z,20.53
2019-04-11T13:43:16.344Z,17.70
2019-04-11T13:50:03.985Z,19.20
2019-04-11T13:57:06.622Z,22.20
2019-04-11T14:04:02.104Z,18.23
2019-04-11T14:11:05.091Z,18.47
2019-04-11T14:18:05.097Z,18.27
2019-04-11T14:24:51.829Z,18.60
2019-04-11T14:31:54.077Z,19.27
2019-04-11T14:38:46.446Z,19.13
2019-04-11T14:45:36.449Z,18.23
2019-04-11T14:52:38.346Z,18.70
2019-04-11T14:59:28.102Z,18.57
2019-04-11T15:06:27.542Z,19.13
2019-04-11T15:13:19.677Z,21.37
2019-04-11T15:20:13.011Z,15.20
2019-04-11T15:27:00.678Z,17.57
2019-04-11T15:34:04.051Z,15.67
2019-04-11T15:40:50.113Z,17.53
2019-04-11T15:47:37.078Z,17.20
2019-04-11T15:54:23.635Z,18.30
2019-04-11T16:01:10.718Z,18.90
2019-04-11T16:08:08.562Z,18.00
2019-04-11T16:15:09.854Z,17.10
2019-04-11T16:22:02.310Z,18.47
2019-04-11T16:29:08.682Z,19.97
2019-04-11T16:36:04.170Z,20.37
2019-04-11T16:42:49.114Z,16.17
2019-04-11T16:49:34.094Z,21.73
2019-04-11T16:56:19.210Z,19.13
2019-04-11T17:03:04.424Z,17.93
2019-04-11T17:09:51.215Z,18.93
2019-04-11T17:16:36.143Z,16.93
2019-04-11T17:23:21.011Z,21.70
2019-04-11T17:30:06.916Z,18.20
2019-04-11T17:36:51.805Z,20.10
2019-04-11T17:43:37.136Z,19.80
2019-04-11T17:50:23.231Z,15.97
2019-04-11T17:57:08.444Z,22.33
2019-04-11T18:03:54.212Z,19.80
2019-04-11T18:10:39.207Z,18.53
2019-04-11T18:17:24.410Z,20.20
2019-04-11T18:24:10.419Z,18.17
2019-04-11T18:30:55.342Z,15.53
2019-04-11T18:37:40.357Z,16.43
2019-04-11T18:44:25.310Z,15.87
2019-04-11T18:51:10.402Z,15.73
2019-04-11T18:57:55.270Z,13.40
2019-04-11T19:04:42.214Z,14.67
2019-04-11T19:11:26.907Z,16.53
2019-04-11T19:18:15.930Z,15.50
2019-04-11T19:24:58.882Z,15.27
2019-04-11T19:31:43.886Z,14.87
2019-04-11T19:38:30.671Z,14.03
2019-04-11T19:45:16.906Z,15.27
2019-04-11T19:52:04.105Z,13.77
2019-04-11T19:58:49.164Z,15.03
2019-04-11T20:05:34.089Z,16.67
2019-04-11T20:12:19.035Z,15.40
2019-04-11T20:19:04.147Z,14.53
2019-04-11T20:25:50.159Z,17.27
2019-04-11T20:32:35.227Z,17.00
2019-04-11T20:39:20.454Z,17.17
2019-04-11T20:46:05.570Z,18.33
2019-04-11T20:52:50.571Z,16.07
2019-04-11T20:59:41.228Z,15.93
2019-04-11T21:06:22.700Z,17.27
2019-04-11T21:13:08.235Z,18.43
2019-04-11T21:19:53.333Z,17.47
2019-04-11T21:26:38.951Z,16.87
2019-04-11T21:33:23.805Z,18.73
2019-04-11T21:40:09.403Z,15.70
2019-04-11T21:46:54.539Z,10.80
2019-04-11T21:53:44.364Z,15.13
2019-04-11T22:00:32.783Z,13.43
2019-04-11T22:07:19.243Z,12.57
2019-04-11T22:14:05.610Z,12.87
2019-04-11T22:20:51.534Z,12.00
2019-04-11T22:27:37.924Z,13.97
2019-04-11T22:34:28.770Z,10.97
2019-04-11T22:41:14.137Z,13.73
2019-04-11T22:47:58.990Z,11.03
2019-04-11T22:54:43.867Z,13.27
2019-04-11T23:01:28.720Z,14.70
2019-04-11T23:08:13.636Z,12.90
2019-04-11T23:14:59.435Z,10.83
2019-04-11T23:21:44.844Z,13.47
2019-04-11T23:28:29.707Z,12.40
2019-04-11T23:35:14.623Z,15.93
2019-04-11T23:41:59.482Z,13.50
2019-04-11T23:48:44.343Z,12.27
2019-04-11T23:55:30.811Z,11.73
